Time;durP1;ratioP1;P1;durP2;ratioP2;P2;SDS_P1;SDS_P2;PMS_P1;PMS_P2;Temp;Humidity;BMP_temperature;BMP_pressure;BME280_temperature;BME280_humidity;BME280_pressure;Samples;Min_cycle;Max_cycle;Signal;HPM_P1;HPM_P2
2021/12/04 00:01:46;;;;;;;10.37;8.17;;;1.00;99.90;-0.10;98878;;;;573476;250;24144;-76
2021/12/04 00:04:19;;;;;;;10.90;8.33;;;1.00;99.90;-0.20;98873;;;;566656;249;24101;-78
2021/12/04 00:06:42;;;;;;;9.97;8.23;;;1.00;99.90;-0.20;98871;;;;566343;250;24091;-81
2021/12/04 00:09:11;;;;;;;9.87;8.17;;;0.90;99.90;-0.20;98874;;;;566436;250;24100;-82
2021/12/04 00:11:40;;;;;;;9.73;7.87;;;0.90;99.90;-0.30;98863;;;;566422;250;24131;-83
2021/12/04 00:14:05;;;;;;;12.77;8.40;;;0.90;99.90;-0.30;98858;;;;566925;250;24101;-78
2021/12/04 00:16:33;;;;;;;11.90;8.50;;;0.80;99.90;-0.30;98853;;;;566925;250;24118;-79
2021/12/04 00:19:01;;;;;;;11.27;7.77;;;0.80;99.90;-0.40;98850;;;;567159;250;24137;-81
2021/12/04 00:21:30;;;;;;;11.43;8.97;;;0.70;99.90;-0.40;98850;;;;567344;250;24093;-76
2021/12/04 00:23:58;;;;;;;10.43;8.43;;;0.70;99.90;-0.40;98847;;;;567028;250;24137;-78
2021/12/04 00:26:26;;;;;;;11.50;7.87;;;0.70;99.90;-0.40;98849;;;;561892;250;35363;-77
2021/12/04 00:28:54;;;;;;;11.93;5.87;;;0.70;99.90;-0.40;98843;;;;566780;250;24167;-80
2021/12/04 00:31:25;;;;;;;8.00;5.43;;;0.70;99.90;-0.40;98856;;;;567005;250;24082;-80
2021/12/04 00:33:50;;;;;;;13.77;8.53;;;0.70;99.90;-0.50;98853;;;;561986;250;24090;-80
2021/12/04 00:36:37;;;;;;;11.33;9.07;;;0.70;99.90;-0.50;98861;;;;566553;250;24122;-81
2021/12/04 00:50:01;;;;;;;12.00;8.30;;;0.60;99.90;-0.50;98838;;;;560883;250;24105;-79
2021/12/04 00:52:32;;;;;;;7.77;6.37;;;0.70;99.90;-0.40;98850;;;;566604;250;24159;-81
2021/12/04 00:54:59;;;;;;;14.87;6.77;;;0.70;99.90;-0.40;98841;;;;573280;250;24147;-78
2021/12/04 00:57:24;;;;;;;14.90;9.40;;;0.70;99.90;-0.50;98845;;;;581025;246;24059;-78
2021/12/04 00:59:53;;;;;;;14.55;9.95;;;0.60;99.90;-0.50;98842;;;;559827;250;35252;-80
2021/12/04 01:02:21;;;;;;;11.67;9.97;;;0.60;99.90;-0.50;98826;;;;566517;250;24114;-78
2021/12/04 01:04:49;;;;;;;11.33;5.90;;;0.60;99.90;-0.50;98829;;;;564789;250;24097;-82
2021/12/04 01:07:17;;;;;;;12.10;8.83;;;0.60;99.90;-0.50;98826;;;;565842;250;24171;-81
2021/12/04 01:09:46;;;;;;;15.17;10.07;;;0.60;99.90;-0.50;98827;;;;573472;250;24109;-81
2021/12/04 01:12:17;;;;;;;15.27;9.77;;;0.60;99.90;-0.60;98825;;;;562359;250;24149;-81
2021/12/04 01:14:42;;;;;;;12.97;10.73;;;0.50;99.90;-0.60;98810;;;;573684;250;24168;-77
2021/12/04 01:17:10;;;;;;;20.57;10.07;;;0.60;99.90;-0.50;98808;;;;565706;249;24080;-82
2021/12/04 01:19:38;;;;;;;13.77;10.90;;;0.60;99.90;-0.50;98804;;;;569889;249;24079;-82
2021/12/04 01:22:07;;;;;;;14.60;10.10;;;0.60;99.90;-0.50;98805;;;;569834;249;24222;-78
2021/12/04 01:24:36;;;;;;;14.37;10.87;;;0.60;99.90;-0.50;98808;;;;568476;249;24110;-82
2021/12/04 01:27:07;;;;;;;14.73;10.23;;;0.60;99.90;-0.50;98801;;;;570302;249;24163;-79
2021/12/04 01:29:35;;;;;;;12.37;10.00;;;0.60;99.90;-0.50;98801;;;;563841;250;24090;-81
2021/12/04 01:31:59;;;;;;;13.50;10.33;;;0.60;99.90;-0.50;98796;;;;565222;250;24126;-83
2021/12/04 01:34:30;;;;;;;10.80;9.63;;;0.60;99.90;-0.50;98794;;;;565354;250;24088;-77
2021/12/04 01:36:55;;;;;;;11.37;9.40;;;0.60;99.90;-0.50;98800;;;;565352;250;25208;-83
2021/12/04 01:39:24;;;;;;;13.63;9.73;;;0.60;99.90;-0.50;98799;;;;567195;250;24142;-81
2021/12/04 01:41:52;;;;;;;14.10;10.10;;;0.60;99.90;-0.50;98786;;;;567455;250;24068;-79
2021/12/04 01:44:20;;;;;;;12.33;10.00;;;0.60;99.90;-0.50;98795;;;;565729;250;25154;-81
2021/12/04 01:46:48;;;;;;;13.50;10.13;;;0.60;99.90;-0.50;98795;;;;572055;247;24093;-77
2021/12/04 01:49:19;;;;;;;12.93;10.13;;;0.60;99.90;-0.50;98796;;;;565571;250;24101;-78
2021/12/04 01:51:43;;;;;;;12.27;9.97;;;0.60;99.90;-0.50;98798;;;;562746;248;24083;-77
2021/12/04 01:54:12;;;;;;;13.20;10.30;;;0.70;99.90;-0.40;98777;;;;568701;249;24072;-76
2021/12/04 01:56:43;;;;;;;11.73;9.40;;;0.60;99.90;-0.50;98773;;;;566530;250;24137;-75
2021/12/04 01:59:09;;;;;;;12.20;9.53;;;0.60;99.90;-0.40;98764;;;;574625;250;24147;-76
2021/12/04 02:01:36;;;;;;;12.37;9.63;;;0.70;99.90;-0.50;98753;;;;566201;250;24081;-75
2021/12/04 02:04:07;;;;;;;10.80;9.27;;;0.70;99.90;-0.40;98759;;;;567723;250;25111;-75
2021/12/04 02:06:32;;;;;;;12.77;9.67;;;0.70;99.90;-0.40;98762;;;;574401;250;24090;-76
2021/12/04 02:09:00;;;;;;;10.43;9.27;;;0.70;99.90;-0.40;98751;;;;566571;250;24089;-74
2021/12/04 02:11:27;;;;;;;11.53;9.70;;;0.70;99.90;-0.40;98753;;;;567386;250;24124;-76
2021/12/04 02:13:55;;;;;;;10.57;8.70;;;0.70;99.90;-0.40;98746;;;;567151;250;24079;-75
2021/12/04 02:16:23;;;;;;;10.80;9.33;;;0.70;99.90;-0.40;98739;;;;567086;250;28348;-75
2021/12/04 02:18:51;;;;;;;12.37;9.50;;;0.70;99.90;-0.40;98735;;;;565768;250;25119;-76
2021/12/04 02:21:19;;;;;;;9.70;8.43;;;0.80;99.90;-0.40;98740;;;;567533;250;24092;-74
2021/12/04 02:23:48;;;;;;;12.00;9.37;;;0.70;99.90;-0.40;98748;;;;567667;250;24080;-78
2021/12/04 02:26:16;;;;;;;11.17;9.03;;;0.70;99.90;-0.40;98747;;;;574375;250;24141;-75
2021/12/04 02:28:47;;;;;;;13.73;9.50;;;0.70;99.90;-0.40;98742;;;;567382;250;24068;-74
2021/12/04 02:31:16;;;;;;;12.03;9.47;;;0.70;99.90;-0.40;98747;;;;567357;250;24102;-76
2021/12/04 02:33:44;;;;;;;13.70;9.60;;;0.70;99.90;-0.40;98747;;;;574091;250;24109;-75
2021/12/04 02:36:12;;;;;;;10.80;9.03;;;0.70;99.90;-0.40;98751;;;;567372;250;24083;-78
2021/12/04 02:38:40;;;;;;;10.97;9.87;;;0.70;99.90;-0.40;98744;;;;567386;250;24080;-75
2021/12/04 02:41:09;;;;;;;12.93;9.80;;;0.70;99.90;-0.40;98737;;;;567319;250;24152;-74
2021/12/04 02:43:36;;;;;;;12.30;8.23;;;0.70;99.90;-0.30;98743;;;;562067;250;57154;-80
2021/12/04 02:46:04;;;;;;;9.43;5.80;;;0.80;99.90;-0.30;98742;;;;574273;250;24092;-78
2021/12/04 02:48:32;;;;;;;10.57;6.53;;;0.80;99.90;-0.30;98738;;;;567043;250;24125;-82
2021/12/04 02:51:00;;;;;;;11.40;6.07;;;0.80;99.90;-0.30;98724;;;;573921;250;24099;-81
2021/12/04 02:53:28;;;;;;;14.80;8.90;;;0.80;99.90;-0.30;98725;;;;574041;250;24101;-79
2021/12/04 02:55:56;;;;;;;13.73;10.33;;;0.80;99.90;-0.30;98726;;;;567112;250;24107;-80
2021/12/04 02:58:26;;;;;;;13.93;10.67;;;0.80;99.90;-0.30;98719;;;;565440;250;24109;-77
2021/12/04 03:00:51;;;;;;;14.50;9.97;;;0.80;99.90;-0.30;98718;;;;572400;247;24100;-74
2021/12/04 03:03:19;;;;;;;14.83;10.07;;;0.80;99.90;-0.30;98713;;;;581574;244;25130;-73
2021/12/04 03:05:50;;;;;;;10.23;9.17;;;0.80;99.90;-0.30;98705;;;;566636;250;24086;-75
2021/12/04 03:08:15;;;;;;;11.03;9.03;;;0.80;99.90;-0.30;98699;;;;565782;250;24124;-78
2021/12/04 03:10:47;;;;;;;14.37;9.77;;;0.80;99.90;-0.30;98702;;;;563485;250;24089;-76
2021/12/04 03:13:17;;;;;;;15.33;9.53;;;0.80;99.90;-0.30;98704;;;;574785;250;24122;-76
2021/12/04 03:15:44;;;;;;;12.87;9.90;;;0.80;99.90;-0.30;98711;;;;577728;248;24030;-78
2021/12/04 03:18:09;;;;;;;13.67;10.17;;;0.80;99.90;-0.30;98707;;;;577179;244;24040;-81
2021/12/04 03:20:42;;;;;;;11.97;9.47;;;0.80;99.90;-0.30;98696;;;;577905;248;24070;-76
2021/12/04 03:23:11;;;;;;;11.50;9.00;;;0.80;99.90;-0.30;98707;;;;588437;244;24060;-76
2021/12/04 03:25:33;;;;;;;11.80;9.67;;;0.80;99.90;-0.30;98694;;;;579420;244;24162;-75
2021/12/04 03:28:05;;;;;;;13.63;10.07;;;0.80;99.90;-0.30;98714;;;;577834;248;24061;-75
2021/12/04 03:30:42;;;;;;;12.77;9.80;;;0.80;99.90;-0.30;98704;;;;578116;244;24052;-77
2021/12/04 03:41:07;;;;;;;14.20;10.43;;;0.80;99.90;-0.30;98687;;;;570038;248;24082;-76
2021/12/04 03:43:36;;;;;;;11.80;9.33;;;0.80;99.90;-0.30;98693;;;;564248;250;25191;-75
2021/12/04 03:46:06;;;;;;;13.20;9.27;;;0.80;99.90;-0.30;98695;;;;566936;251;24156;-75
2021/12/04 03:51:03;;;;;;;12.30;8.80;;;0.90;99.90;-0.20;98693;;;;557288;251;35228;-74
2021/12/04 03:53:31;;;;;;;10.00;5.77;;;0.80;99.90;-0.20;98685;;;;560737;253;24157;-72
2021/12/04 03:55:59;;;;;;;10.47;6.20;;;0.80;99.90;-0.20;98684;;;;566976;253;24152;-76
2021/12/04 03:58:31;;;;;;;7.20;5.73;;;0.90;99.90;-0.20;98682;;;;562176;251;24076;-74
2021/12/04 04:00:59;;;;;;;10.63;8.87;;;0.90;99.90;-0.20;98675;;;;564764;250;24112;-73
2021/12/04 04:03:26;;;;;;;11.30;9.17;;;0.90;99.90;-0.20;98678;;;;566492;253;24188;-76
2021/12/04 04:05:51;;;;;;;10.10;8.93;;;0.90;99.90;-0.20;98679;;;;564055;250;24174;-76
2021/12/04 04:08:20;;;;;;;11.93;9.30;;;0.90;99.90;-0.20;98684;;;;577320;248;24117;-75
2021/12/04 04:10:49;;;;;;;12.57;9.30;;;0.90;99.90;-0.20;98676;;;;568466;250;24132;-76
2021/12/04 04:13:19;;;;;;;11.70;9.03;;;0.90;99.90;-0.10;98671;;;;562216;251;24138;-77
2021/12/04 04:15:44;;;;;;;11.07;9.10;;;0.90;99.90;-0.10;98670;;;;562749;250;24128;-76
2021/12/04 04:18:12;;;;;;;11.13;8.97;;;1.00;99.90;-0.10;98670;;;;578624;248;24085;-78
2021/12/04 04:20:40;;;;;;;11.63;9.27;;;0.90;99.90;-0.10;98674;;;;569228;250;24155;-74
2021/12/04 04:23:11;;;;;;;10.37;8.77;;;1.00;99.90;-0.10;98670;;;;566008;248;24097;-74
2021/12/04 04:25:36;;;;;;;15.10;9.63;;;1.00;99.90;-0.10;98671;;;;565828;247;24130;-75
2021/12/04 04:28:04;;;;;;;11.00;8.90;;;1.00;99.90;-0.10;98672;;;;562624;251;24109;-73
2021/12/04 04:30:36;;;;;;;11.13;9.73;;;1.00;99.90;-0.10;98671;;;;569589;248;24077;-74
2021/12/04 04:33:03;;;;;;;13.13;9.07;;;1.00;99.90;-0.10;98671;;;;567398;253;24114;-74
2021/12/04 04:35:31;;;;;;;11.60;8.90;;;1.00;99.90;-0.10;98675;;;;561146;253;24128;-76
2021/12/04 04:38:06;;;;;;;10.43;9.10;;;1.00;99.90;0.00;98671;;;;553867;254;24142;-76
2021/12/04 05:00:36;;;;;;;11.47;10.27;;;1.00;99.90;0.00;98661;;;;566656;253;24145;-77
2021/12/04 05:12:57;;;;;;;13.23;9.23;;;1.00;99.90;0.00;98646;;;;566742;253;24140;-80
2021/12/04 05:21:03;;;;;;;13.43;10.03;;;1.00;99.90;0.00;98646;;;;558546;253;24103;-77
2021/12/04 05:23:22;;;;;;;11.30;10.20;;;1.00;99.90;0.00;98651;;;;554124;253;24161;-78
2021/12/04 05:25:50;;;;;;;11.00;9.80;;;1.00;99.90;0.00;98646;;;;554413;253;24134;-79
2021/12/04 05:28:18;;;;;;;10.00;8.87;;;1.00;99.90;0.00;98648;;;;568512;251;24227;-81
2021/12/04 05:30:46;;;;;;;11.77;10.20;;;1.00;99.90;0.00;98647;;;;560243;253;24104;-82
2021/12/04 05:33:14;;;;;;;16.77;11.10;;;1.00;99.90;0.00;98644;;;;568230;253;24126;-80
2021/12/04 05:35:41;;;;;;;12.63;10.07;;;1.00;99.90;0.00;98650;;;;559612;253;24154;-81
2021/12/04 05:38:09;;;;;;;12.10;10.90;;;1.00;99.90;0.00;98645;;;;567675;253;24118;-79
2021/12/04 05:40:37;;;;;;;11.10;9.90;;;1.00;99.90;0.00;98653;;;;567742;252;24118;-81
2021/12/04 05:43:05;;;;;;;13.30;10.93;;;1.00;99.90;0.00;98649;;;;555049;253;24097;-81
2021/12/04 05:45:38;;;;;;;12.00;10.63;;;1.00;99.90;0.00;98646;;;;554493;253;24168;-78
2021/12/04 05:53:42;;;;;;;12.20;10.57;;;1.00;99.90;0.00;98655;;;;567336;252;24122;-81
2021/12/04 05:55:57;;;;;;;12.30;10.97;;;1.00;99.90;0.00;98656;;;;559237;253;24167;-79
2021/12/04 05:58:28;;;;;;;13.13;11.37;;;1.10;99.90;0.00;98655;;;;567961;252;24113;-80
2021/12/04 06:01:00;;;;;;;13.43;10.20;;;1.10;99.90;0.00;98650;;;;568411;253;24114;-81
2021/12/04 06:03:24;;;;;;;13.73;11.53;;;1.10;99.90;0.00;98649;;;;560008;253;24127;-78
2021/12/04 06:05:52;;;;;;;11.97;10.70;;;1.10;99.90;0.00;98648;;;;558533;253;24170;-81
2021/12/04 06:08:20;;;;;;;14.73;11.33;;;1.10;99.90;0.00;98642;;;;558252;253;24146;-81
2021/12/04 06:10:48;;;;;;;12.23;10.77;;;1.10;99.90;0.00;98649;;;;554030;253;24179;-78
2021/12/04 06:13:16;;;;;;;13.10;11.40;;;1.00;99.90;0.00;98651;;;;566563;252;24140;-80
2021/12/04 06:15:47;;;;;;;12.50;11.20;;;1.00;99.90;0.00;98653;;;;561801;253;24179;-76
2021/12/04 06:18:15;;;;;;;12.37;11.13;;;1.10;99.90;0.00;98660;;;;557575;253;24181;-77
2021/12/04 06:23:26;;;;;;;12.57;10.77;;;1.10;99.90;0.00;98658;;;;566589;253;24119;-79
2021/12/04 06:25:54;;;;;;;12.13;11.00;;;1.00;99.90;0.00;98656;;;;566685;252;24166;-75
2021/12/04 06:28:22;;;;;;;12.60;11.23;;;1.10;99.90;0.00;98658;;;;554227;253;24169;-74
2021/12/04 06:30:49;;;;;;;12.43;11.13;;;1.10;99.90;0.00;98655;;;;554167;253;24143;-74
2021/12/04 06:33:21;;;;;;;11.27;10.17;;;1.10;99.90;0.10;98654;;;;554277;253;24115;-75
2021/12/04 06:35:49;;;;;;;12.43;11.07;;;1.10;99.90;0.10;98657;;;;557925;253;24143;-81
2021/12/04 06:38:14;;;;;;;12.10;10.77;;;1.10;99.90;0.10;98653;;;;566988;251;24176;-81
2021/12/04 06:40:42;;;;;;;12.13;10.77;;;1.10;99.90;0.10;98654;;;;560258;253;24154;-80
2021/12/04 06:43:10;;;;;;;14.57;11.67;;;1.10;99.90;0.10;98652;;;;567977;252;24128;-79
2021/12/04 06:45:41;;;;;;;13.43;12.03;;;1.10;99.90;0.10;98651;;;;558944;253;24109;-80
2021/12/04 06:48:09;;;;;;;14.37;12.60;;;1.10;99.90;0.10;98656;;;;559567;252;24204;-81
2021/12/04 06:50:50;;;;;;;16.03;12.37;;;1.10;99.90;0.10;98659;;;;558766;253;24154;-81
2021/12/04 06:53:36;;;;;;;14.13;12.53;;;1.20;99.90;0.10;98653;;;;559202;253;24175;-81
2021/12/04 06:56:00;;;;;;;14.00;11.77;;;1.10;99.90;0.10;98657;;;;563194;253;24122;-79
2021/12/04 06:58:27;;;;;;;15.13;12.40;;;1.10;99.90;0.10;98655;;;;558115;253;24151;-82
2021/12/04 07:00:54;;;;;;;13.37;11.93;;;1.10;99.90;0.00;98666;;;;558519;253;24153;-82
2021/12/04 07:03:22;;;;;;;12.63;11.37;;;1.10;99.90;0.10;98656;;;;561500;251;24103;-76
2021/12/04 07:05:53;;;;;;;15.10;12.23;;;1.10;99.90;0.00;98656;;;;574768;245;24171;-78
2021/12/04 07:08:18;;;;;;;15.83;11.63;;;1.10;99.90;0.00;98653;;;;582092;242;24055;-76
2021/12/04 07:10:46;;;;;;;14.60;12.27;;;1.10;99.90;0.00;98652;;;;587111;242;24070;-74
2021/12/04 07:13:18;;;;;;;13.73;11.97;;;1.10;99.90;0.00;98647;;;;586954;242;24056;-78
2021/12/04 07:15:45;;;;;;;11.90;10.70;;;1.10;99.90;0.10;98649;;;;591170;242;24057;-77
2021/12/04 07:18:13;;;;;;;13.43;11.97;;;1.10;99.90;0.10;98660;;;;586720;242;24144;-75
2021/12/04 07:20:38;;;;;;;12.87;11.57;;;1.10;99.90;0.10;98653;;;;590971;242;24046;-74
2021/12/04 07:23:06;;;;;;;12.93;11.63;;;1.10;99.90;0.10;98655;;;;582469;242;24067;-74
2021/12/04 07:25:35;;;;;;;12.53;11.23;;;1.20;99.90;0.10;98660;;;;582347;242;24054;-76
2021/12/04 07:28:03;;;;;;;13.40;11.87;;;1.10;99.90;0.10;98658;;;;586802;242;24073;-75
2021/12/04 07:30:31;;;;;;;14.07;10.97;;;1.20;99.90;0.20;98657;;;;591841;242;24064;-75
2021/12/04 07:33:01;;;;;;;12.53;11.23;;;1.20;99.90;0.20;98667;;;;587110;242;24069;-75
2021/12/04 07:35:29;;;;;;;12.07;10.77;;;1.20;99.90;0.30;98669;;;;587046;242;24063;-76
2021/12/04 07:37:57;;;;;;;15.67;11.53;;;1.30;99.90;0.30;98667;;;;587066;242;24110;-75
2021/12/04 07:40:25;;;;;;;13.83;11.43;;;1.40;99.90;0.40;98668;;;;580211;245;24151;-81
2021/12/04 07:42:54;;;;;;;12.47;11.27;;;1.50;99.90;0.40;98667;;;;572876;247;24082;-80
2021/12/04 07:45:22;;;;;;;13.20;10.97;;;1.50;99.90;0.50;98674;;;;577352;246;24083;-79
2021/12/04 07:47:50;;;;;;;13.67;11.70;;;1.50;99.90;0.50;98673;;;;575234;246;24062;-80
2021/12/04 07:50:18;;;;;;;15.67;11.53;;;1.50;99.90;0.50;98664;;;;575940;245;24066;-82
2021/12/04 07:52:50;;;;;;;13.67;11.17;;;1.60;99.90;0.50;98661;;;;576458;245;24115;-81
2021/12/04 07:55:14;;;;;;;14.17;11.70;;;1.60;99.90;0.50;98655;;;;570833;245;24176;-83
2021/12/04 07:57:42;;;;;;;15.27;11.70;;;1.60;99.90;0.60;98665;;;;576023;245;24114;-82
2021/12/04 08:00:10;;;;;;;13.73;11.80;;;1.60;99.90;0.60;98665;;;;575847;245;24144;-80
2021/12/04 08:02:40;;;;;;;12.47;11.17;;;1.60;99.90;0.60;98673;;;;570976;245;24062;-83
2021/12/04 08:05:09;;;;;;;13.80;10.40;;;1.70;99.90;0.70;98668;;;;575969;245;24109;-81
2021/12/04 08:07:38;;;;;;;12.47;8.87;;;1.70;99.90;0.70;98671;;;;584465;245;24233;-81
2021/12/04 08:10:02;;;;;;;10.40;7.87;;;1.70;99.90;0.80;98660;;;;583855;246;24159;-74
2021/12/04 08:12:30;;;;;;;12.13;8.00;;;1.80;99.90;0.90;98672;;;;570851;246;24129;-76
2021/12/04 08:14:57;;;;;;;10.63;7.73;;;1.90;99.90;0.90;98662;;;;577300;246;24079;-76
2021/12/04 08:17:25;;;;;;;10.40;7.87;;;1.90;99.90;1.00;98669;;;;577260;246;24134;-77
2021/12/04 08:19:54;;;;;;;10.43;8.17;;;2.00;99.90;1.00;98669;;;;577360;246;24077;-74
2021/12/04 08:22:22;;;;;;;10.70;7.40;;;2.00;99.90;1.10;98670;;;;577244;246;24045;-75
2021/12/04 08:24:51;;;;;;;11.73;7.70;;;2.20;99.90;1.20;98677;;;;577224;246;24074;-77
2021/12/04 08:27:18;;;;;;;8.87;7.40;;;2.20;99.90;1.20;98669;;;;577218;246;24157;-75
2021/12/04 08:29:46;;;;;;;9.77;7.90;;;2.20;99.90;1.20;98678;;;;584030;246;24131;-77
2021/12/04 08:32:15;;;;;;;9.53;7.60;;;2.30;99.90;1.30;98678;;;;583936;246;25095;-79
2021/12/04 08:34:43;;;;;;;9.93;7.87;;;2.30;99.90;1.30;98686;;;;577020;246;24080;-79
2021/12/04 08:37:11;;;;;;;10.40;7.70;;;2.30;99.90;1.40;98687;;;;576962;246;24130;-76
2021/12/04 08:39:39;;;;;;;12.73;8.30;;;2.40;99.90;1.40;98686;;;;577039;246;24125;-76
2021/12/04 08:42:10;;;;;;;11.30;7.53;;;2.40;99.90;1.50;98690;;;;576945;246;24108;-77
2021/12/04 08:44:39;;;;;;;10.73;7.50;;;2.50;99.90;1.50;98695;;;;583764;246;24065;-75
2021/12/04 08:47:03;;;;;;;10.63;7.43;;;2.50;99.90;1.60;98706;;;;570388;247;24095;-75
2021/12/04 08:49:32;;;;;;;8.23;6.60;;;2.60;99.90;1.60;98701;;;;571244;247;24082;-74
2021/12/04 08:51:58;;;;;;;10.53;7.30;;;2.60;99.90;1.60;98689;;;;572854;247;24116;-74
2021/12/04 08:54:26;;;;;;;9.77;7.37;;;2.60;99.90;1.50;98696;;;;583414;242;24070;-74
2021/12/04 08:56:54;;;;;;;8.60;6.30;;;2.60;99.90;1.50;98697;;;;581154;242;24062;-75
2021/12/04 08:59:23;;;;;;;11.20;7.77;;;2.60;99.90;1.60;98706;;;;576458;246;24096;-75
2021/12/04 09:01:51;;;;;;;9.80;6.87;;;2.60;99.90;1.60;98697;;;;577899;245;24063;-75
2021/12/04 09:04:19;;;;;;;10.23;6.40;;;2.60;99.90;1.60;98699;;;;576782;245;24068;-76
2021/12/04 09:06:49;;;;;;;10.67;6.90;;;2.60;99.90;1.60;98697;;;;576033;245;24078;-74
2021/12/04 09:09:16;;;;;;;11.70;7.13;;;2.60;99.90;1.60;98705;;;;577801;245;24069;-75
2021/12/04 09:11:45;;;;;;;13.30;7.60;;;2.60;99.90;1.60;98710;;;;562394;252;24094;-72
2021/12/04 09:14:12;;;;;;;12.30;7.27;;;2.60;99.90;1.60;98696;;;;569231;247;24159;-75
2021/12/04 09:16:44;;;;;;;11.67;6.20;;;2.60;99.90;1.70;98704;;;;574072;247;24106;-76
2021/12/04 09:19:08;;;;;;;10.53;7.93;;;2.60;99.90;1.60;98689;;;;569419;247;24092;-75
2021/12/04 09:21:39;;;;;;;9.37;6.87;;;2.60;99.90;1.60;98698;;;;569565;247;25174;-76
2021/12/04 09:24:11;;;;;;;10.33;7.30;;;2.60;99.90;1.60;98699;;;;579549;247;24130;-75
2021/12/04 09:59:48;;;;;;;10.60;6.93;;;2.90;99.90;2.00;98715;;;;579567;247;24075;-74
2021/12/04 10:02:10;;;;;;;8.17;6.57;;;3.00;99.90;2.10;98715;;;;569953;247;24168;-75
2021/12/04 10:04:59;;;;;;;12.00;7.07;;;3.00;99.90;2.10;98712;;;;579357;247;24157;-75
2021/12/04 10:18:42;;;;;;;10.13;7.20;;;3.20;99.90;2.20;98706;;;;571954;247;24101;-78
2021/12/04 10:21:11;;;;;;;9.07;7.17;;;3.20;99.90;2.20;98712;;;;579926;247;24098;-78
2021/12/04 10:33:55;;;;;;;10.23;6.47;;;3.20;99.90;2.30;98700;;;;570863;252;24107;-81
2021/12/04 10:36:39;;;;;;;9.90;6.60;;;3.20;99.90;2.30;98694;;;;561725;252;24192;-79
2021/12/04 10:39:05;;;;;;;8.77;6.93;;;3.30;99.90;2.30;98696;;;;568974;253;24112;-79
2021/12/04 10:41:36;;;;;;;9.50;6.23;;;3.30;99.90;2.30;98691;;;;557974;253;24139;-79
2021/12/04 10:44:22;;;;;;;7.50;5.93;;;3.30;99.90;2.30;98692;;;;559383;252;24116;-79
2021/12/04 10:46:59;;;;;;;9.20;6.03;;;3.30;99.90;2.40;98693;;;;560986;252;24203;-78
2021/12/04 10:52:48;;;;;;;9.20;6.07;;;3.30;99.90;2.40;98691;;;;578440;247;24101;-77
2021/12/04 10:55:14;;;;;;;7.73;6.67;;;3.40;99.90;2.40;98695;;;;570438;247;24185;-77
2021/12/04 10:58:20;;;;;;;10.17;7.07;;;3.30;99.90;2.40;98700;;;;568536;247;24156;-78
2021/12/04 11:00:16;;;;;;;8.77;5.73;;;3.40;99.90;2.50;98697;;;;580822;244;24063;-80
2021/12/04 11:02:38;;;;;;;7.00;5.73;;;3.50;99.90;2.50;98706;;;;578903;244;24468;-76
2021/12/04 11:19:10;;;;;;;8.30;5.63;;;3.80;99.90;2.80;98720;;;;588647;244;24088;-76
2021/12/04 11:21:57;;;;;;;7.27;5.60;;;3.80;99.90;2.80;98718;;;;581938;244;24069;-77
2021/12/04 11:40:20;;;;;;;7.60;5.83;;;3.70;99.90;2.80;98710;;;;588931;244;24074;-76
2021/12/04 11:42:41;;;;;;;6.80;5.43;;;3.80;99.90;2.80;98715;;;;584639;244;24136;-76
2021/12/04 11:45:13;;;;;;;6.87;4.97;;;3.80;99.90;2.80;98724;;;;582032;243;24088;-75
2021/12/04 11:47:36;;;;;;;9.60;5.30;;;3.80;99.90;2.80;98715;;;;578378;242;24066;-76
2021/12/04 11:50:04;;;;;;;6.60;4.83;;;3.80;99.90;2.80;98715;;;;562808;252;24073;-76
2021/12/04 11:52:32;;;;;;;4.70;4.30;;;3.80;99.90;2.80;98714;;;;574355;247;25166;-76
2021/12/04 11:55:07;;;;;;;6.23;4.43;;;3.70;99.90;2.80;98713;;;;571744;247;25154;-76
2021/12/04 11:57:29;;;;;;;9.60;5.07;;;3.70;99.90;2.80;98716;;;;571803;247;24096;-78
2021/12/04 11:59:57;;;;;;;7.87;4.47;;;3.70;99.90;2.80;98716;;;;580986;247;24071;-79
2021/12/04 12:02:25;;;;;;;8.17;5.17;;;3.70;99.90;2.80;98716;;;;580388;247;24094;-76
2021/12/04 12:04:59;;;;;;;6.60;5.00;;;3.80;99.90;2.80;98718;;;;560935;252;24113;-77
2021/12/04 12:07:26;;;;;;;5.60;4.57;;;3.80;99.90;2.80;98717;;;;579660;247;24095;-75
2021/12/04 12:10:09;;;;;;;6.43;4.93;;;3.80;99.90;2.80;98708;;;;580742;247;25156;-74
2021/12/04 12:12:41;;;;;;;6.60;4.60;;;3.80;99.90;2.90;98700;;;;570000;252;24175;-77
2021/12/04 12:15:16;;;;;;;6.03;4.87;;;3.80;99.90;2.90;98704;;;;575364;247;24084;-78
2021/12/04 12:17:44;;;;;;;5.93;4.87;;;3.80;99.90;2.90;98716;;;;578847;247;25148;-76
2021/12/04 12:20:16;;;;;;;6.30;4.77;;;3.80;99.90;2.90;98713;;;;571325;247;24123;-75
2021/12/04 12:22:49;;;;;;;6.90;4.47;;;3.90;99.90;2.90;98709;;;;580433;247;24096;-76
2021/12/04 12:25:44;;;;;;;6.10;4.63;;;3.90;99.90;2.90;98721;;;;571626;245;24099;-73
2021/12/04 12:36:21;;;;;;;4.93;4.23;;;3.90;99.90;2.90;98722;;;;580244;245;24073;-75
2021/12/04 12:38:45;;;;;;;6.40;4.57;;;3.80;99.90;2.80;98724;;;;571510;247;24110;-73
2021/12/04 12:41:46;;;;;;;4.30;3.90;;;3.80;99.90;2.80;98723;;;;572413;247;24160;-75
2021/12/04 12:44:26;;;;;;;6.47;5.03;;;3.70;99.90;2.80;98741;;;;571716;247;24041;-75
2021/12/04 12:46:57;;;;;;;7.00;4.93;;;3.80;99.90;2.70;98733;;;;571649;247;24060;-75
2021/12/04 12:49:44;;;;;;;6.27;4.57;;;3.70;99.90;2.70;98729;;;;571775;247;24047;-75
2021/12/04 12:52:21;;;;;;;9.10;5.23;;;3.60;99.90;2.60;98726;;;;581207;247;24057;-76
2021/12/04 12:55:00;;;;;;;5.90;4.63;;;3.60;99.90;2.60;98729;;;;571893;247;24095;-75
2021/12/04 12:57:38;;;;;;;6.33;4.77;;;3.60;99.90;2.60;98733;;;;571571;247;24163;-77
2021/12/04 13:11:43;;;;;;;7.37;5.37;;;3.40;99.90;2.40;98722;;;;578259;247;24106;-82
2021/12/04 13:14:13;;;;;;;6.40;4.30;;;3.40;99.90;2.40;98718;;;;565404;249;24125;-76
2021/12/04 13:16:38;;;;;;;5.83;4.93;;;3.30;99.90;2.40;98723;;;;565145;249;25132;-81
2021/12/04 13:19:09;;;;;;;7.53;5.43;;;3.30;99.90;2.40;98720;;;;565168;249;24094;-76
2021/12/04 13:21:37;;;;;;;12.57;4.77;;;3.30;99.90;2.40;98724;;;;577451;248;24156;-77
2021/12/04 13:24:01;;;;;;;5.13;4.10;;;3.30;99.90;2.30;98722;;;;568609;248;24118;-79
2021/12/04 13:26:29;;;;;;;6.60;5.07;;;3.30;99.90;2.30;98725;;;;566815;248;24091;-78
2021/12/04 13:28:59;;;;;;;8.13;7.18;;;3.30;99.90;2.30;98727;;;;561728;248;35422;-78
2021/12/04 13:31:29;;;;;;;7.10;5.40;;;3.20;99.90;2.20;98721;;;;566703;248;24102;-76
2021/12/04 13:33:53;;;;;;;6.50;5.03;;;3.20;99.90;2.20;98726;;;;566525;248;24132;-77
2021/12/04 13:36:28;;;;;;;7.83;4.37;;;3.20;99.90;2.20;98722;;;;579717;244;24056;-77
2021/12/04 13:38:58;;;;;;;8.10;5.00;;;3.20;99.90;2.20;98709;;;;564095;250;24107;-73
2021/12/04 13:41:28;;;;;;;7.45;6.62;;;3.10;99.90;2.20;98716;;;;583747;244;35116;-80
2021/12/04 13:43:55;;;;;;;5.90;5.30;;;3.10;99.90;2.20;98716;;;;575721;245;24100;-78
2021/12/04 13:46:26;;;;;;;6.50;4.67;;;3.10;99.90;2.10;98712;;;;570452;247;24143;-76
2021/12/04 13:48:55;;;;;;;5.90;4.80;;;3.10;99.90;2.10;98717;;;;581867;243;24185;-75
2021/12/04 13:51:19;;;;;;;8.93;5.47;;;3.10;99.90;2.10;98723;;;;564706;249;24096;-76
2021/12/04 13:53:47;;;;;;;8.20;4.90;;;3.10;99.90;2.10;98721;;;;576852;245;24085;-76
2021/12/04 13:56:15;;;;;;;5.30;4.80;;;3.10;99.90;2.10;98715;;;;585266;242;24140;-79
2021/12/04 13:58:57;;;;;;;6.33;4.27;;;3.00;99.90;2.10;98716;;;;567955;249;24112;-75
2021/12/04 14:01:23;;;;;;;7.30;4.50;;;3.00;99.90;2.00;98727;;;;566582;249;24090;-75
2021/12/04 14:03:51;;;;;;;8.73;5.33;;;3.00;99.90;2.00;98732;;;;567109;249;24112;-77
2021/12/04 14:06:21;;;;;;;8.13;4.83;;;3.00;99.90;1.90;98733;;;;567482;248;24097;-77
2021/12/04 14:08:58;;;;;;;8.53;5.13;;;2.90;99.90;1.90;98735;;;;566248;250;24085;-77
2021/12/04 14:11:29;;;;;;;8.98;7.15;;;2.90;99.90;1.80;98732;;;;561540;250;35322;-76
2021/12/04 14:14:00;;;;;;;6.93;5.40;;;2.80;99.90;1.80;98742;;;;566424;250;24112;-76
2021/12/04 14:16:26;;;;;;;5.17;4.67;;;2.80;99.90;1.80;98740;;;;564997;250;24111;-81
2021/12/04 14:18:54;;;;;;;6.07;5.07;;;2.70;99.90;1.70;98741;;;;566679;250;24128;-76
2021/12/04 14:21:22;;;;;;;7.23;5.20;;;2.70;99.90;1.70;98750;;;;566673;250;24139;-79
2021/12/04 14:23:50;;;;;;;6.27;4.70;;;2.70;99.90;1.70;98741;;;;575038;250;24129;-75